Time,TemperatureF,DewpointF,PressureIn,WindDirection,WindDirectionDegrees,WindSpeedMPH,WindSpeedGustMPH,Humidity,HourlyPrecipIn,Conditions,Clouds,dailyrainin,SoftwareType,DateUTC
2013-06-28 00:02:00,70.0,-99.9,29.88,North,-999,-999.0,-999.0,-999,-99.99,,,-99.99,,2013-06-28 08:02:00,
2013-06-28 00:11:00,69.0,-99.9,29.88,North,-999,-999.0,-999.0,-999,-99.99,,,-99.99,,2013-06-28 08:11:00,
2013-06-28 00:22:00,69.0,-99.9,29.88,North,-999,-999.0,-999.0,-999,-99.99,,,-99.99,,2013-06-28 08:22:00,
2013-06-28 00:33:00,68.0,-99.9,29.89,North,-999,-999.0,-999.0,-999,-99.99,,,-99.99,,2013-06-28 08:33:00,
2013-06-28 00:43:00,68.0,-99.9,29.89,North,-999,-999.0,-999.0,-999,-99.99,,,-99.99,,2013-06-28 08:43:00,
2013-06-28 00:52:00,68.0,-99.9,29.89,North,-999,-999.0,-999.0,-999,-99.99,,,-99.99,,2013-06-28 08:52:00,
2013-06-28 01:02:00,68.0,-99.9,29.89,North,-999,-999.0,-999.0,-999,-99.99,,,-99.99,,2013-06-28 09:02:00,
2013-06-28 01:11:00,68.0,-99.9,29.89,North,-999,-999.0,-999.0,-999,-99.99,,,-99.99,,2013-06-28 09:11:00,
2013-06-28 04:02:00,60.0,-99.9,29.92,North,-999,-999.0,-999.0,-999,-99.99,,,-99.99,,2013-06-28 12:02:00,
2013-06-28 04:12:00,60.0,-99.9,29.92,North,-999,-999.0,-999.0,-999,-99.99,,,-99.99,,2013-06-28 12:12:00,
2013-06-28 04:22:00,60.0,-99.9,29.92,North,-999,-999.0,-999.0,-999,-99.99,,,-99.99,,2013-06-28 12:22:00,
2013-06-28 04:34:00,60.0,-99.9,29.92,North,-999,-999.0,-999.0,-999,-99.99,,,-99.99,,2013-06-28 12:34:00,
2013-06-28 04:43:00,59.0,-99.9,29.92,North,-999,-999.0,-999.0,-999,-99.99,,,-99.99,,2013-06-28 12:43:00,
2013-06-28 04:52:00,59.0,-99.9,29.92,North,-999,-999.0,-999.0,-999,-99.99,,,-99.99,,2013-06-28 12:52:00,
2013-06-28 05:02:00,59.0,-99.9,29.92,North,-999,-999.0,-999.0,-999,-99.99,,,-99.99,,2013-06-28 13:02:00,
2013-06-28 05:11:00,59.0,-99.9,29.93,North,-999,-999.0,-999.0,-999,-99.99,,,-99.99,,2013-06-28 13:11:00,
2013-06-28 05:23:00,59.0,-99.9,29.93,North,-999,-999.0,-999.0,-999,-99.99,,,-99.99,,2013-06-28 13:23:00,
2013-06-28 05:43:00,60.0,-99.9,29.92,North,-999,-999.0,-999.0,-999,-99.99,,,-99.99,,2013-06-28 13:43:00,
2013-06-28 05:53:00,60.0,-99.9,29.92,North,-999,-999.0,-999.0,-999,-99.99,,,-99.99,,2013-06-28 13:53:00,
2013-06-28 06:12:00,59.0,-99.9,29.93,North,-999,-999.0,-999.0,-999,-99.99,,,-99.99,,2013-06-28 14:12:00,
2013-06-28 06:22:00,59.0,-99.9,29.93,North,-999,-999.0,-999.0,-999,-99.99,,,-99.99,,2013-06-28 14:22:00,
2013-06-28 06:33:00,59.0,-99.9,29.93,North,-999,-999.0,-999.0,-999,-99.99,,,-99.99,,2013-06-28 14:33:00,
2013-06-28 06:44:00,59.0,-99.9,29.93,North,-999,-999.0,-999.0,-999,-99.99,,,-99.99,,2013-06-28 14:44:00,
2013-06-28 06:53:00,60.0,-99.9,29.93,North,-999,-999.0,-999.0,-999,-99.99,,,-99.99,,2013-06-28 14:53:00,
2013-06-28 07:02:00,60.0,-99.9,29.93,North,-999,-999.0,-999.0,-999,-99.99,,,-99.99,,2013-06-28 15:02:00,
2013-06-28 07:11:00,61.0,-99.9,29.94,North,-999,-999.0,-999.0,-999,-99.99,,,-99.99,,2013-06-28 15:11:00,
2013-06-28 07:24:00,61.0,-99.9,29.94,North,-999,-999.0,-999.0,-999,-99.99,,,-99.99,,2013-06-28 15:24:00,
2013-06-28 07:34:00,62.0,-99.9,29.94,North,-999,-999.0,-999.0,-999,-99.99,,,-99.99,,2013-06-28 15:34:00,
2013-06-28 07:43:00,62.0,-99.9,29.94,North,-999,-999.0,-999.0,-999,-99.99,,,-99.99,,2013-06-28 15:43:00,
2013-06-28 07:52:00,62.0,-99.9,29.94,North,-999,-999.0,-999.0,-999,-99.99,,,-99.99,,2013-06-28 15:52:00,
2013-06-28 08:02:00,64.0,-99.9,29.94,North,-999,-999.0,-999.0,-999,-99.99,,,-99.99,,2013-06-28 16:02:00,
2013-06-28 08:11:00,64.0,-99.9,29.94,North,-999,-999.0,-999.0,-999,-99.99,,,-99.99,,2013-06-28 16:11:00,
2013-06-28 08:25:00,64.0,-99.9,29.94,North,-999,-999.0,-999.0,-999,-99.99,,,-99.99,,2013-06-28 16:25:00,
2013-06-28 08:33:00,64.0,-99.9,29.94,North,-999,-999.0,-999.0,-999,-99.99,,,-99.99,,2013-06-28 16:33:00,
2013-06-28 08:44:00,66.0,-99.9,29.94,North,-999,-999.0,-999.0,-999,-99.99,,,-99.99,,2013-06-28 16:44:00,
2013-06-28 08:53:00,67.0,-99.9,29.94,North,-999,-999.0,-999.0,-999,-99.99,,,-99.99,,2013-06-28 16:53:00,
2013-06-28 09:02:00,68.0,-99.9,29.94,North,-999,-999.0,-999.0,-999,-99.99,,,-99.99,,2013-06-28 17:02:00,
2013-06-28 09:11:00,69.0,-99.9,29.94,North,-999,-999.0,-999.0,-999,-99.99,,,-99.99,,2013-06-28 17:11:00,
2013-06-28 09:22:00,69.0,-99.9,29.94,North,-999,-999.0,-999.0,-999,-99.99,,,-99.99,,2013-06-28 17:22:00,
2013-06-28 09:33:00,69.0,-99.9,29.94,North,-999,-999.0,-999.0,-999,-99.99,,,-99.99,,2013-06-28 17:33:00,
2013-06-28 09:44:00,71.0,-99.9,29.94,North,-999,-999.0,-999.0,-999,-99.99,,,-99.99,,2013-06-28 17:44:00,
2013-06-28 09:52:00,72.0,-99.9,29.95,North,-999,-999.0,-999.0,-999,-99.99,,,-99.99,,2013-06-28 17:52:00,
2013-06-28 10:02:00,72.0,-99.9,29.95,North,-999,-999.0,-999.0,-999,-99.99,,,-99.99,,2013-06-28 18:02:00,
2013-06-28 10:12:00,73.0,-99.9,29.94,North,-999,-999.0,-999.0,-999,-99.99,,,-99.99,,2013-06-28 18:12:00,
2013-06-28 10:22:00,73.0,-99.9,29.94,North,-999,-999.0,-999.0,-999,-99.99,,,-99.99,,2013-06-28 18:22:00,
2013-06-28 10:33:00,73.0,-99.9,29.94,North,-999,-999.0,-999.0,-999,-99.99,,,-99.99,,2013-06-28 18:33:00,
2013-06-28 10:43:00,75.0,-99.9,29.94,North,-999,-999.0,-999.0,-999,-99.99,,,-99.99,,2013-06-28 18:43:00,
2013-06-28 10:52:00,76.0,-99.9,29.93,North,-999,-999.0,-999.0,-999,-99.99,,,-99.99,,2013-06-28 18:52:00,
2013-06-28 11:01:00,76.0,-99.9,29.94,North,-999,-999.0,-999.0,-999,-99.99,,,-99.99,,2013-06-28 19:01:00,
2013-06-28 11:11:00,76.0,-99.9,29.94,North,-999,-999.0,-999.0,-999,-99.99,,,-99.99,,2013-06-28 19:11:00,
2013-06-28 11:22:00,76.0,-99.9,29.94,North,-999,-999.0,-999.0,-999,-99.99,,,-99.99,,2013-06-28 19:22:00,
2013-06-28 11:33:00,75.0,-99.9,29.94,North,-999,-999.0,-999.0,-999,-99.99,,,-99.99,,2013-06-28 19:33:00,
2013-06-28 11:43:00,75.0,-99.9,29.94,North,-999,-999.0,-999.0,-999,-99.99,,,-99.99,,2013-06-28 19:43:00,
2013-06-28 11:53:00,75.0,-99.9,29.94,North,-999,-999.0,-999.0,-999,-99.99,,,-99.99,,2013-06-28 19:53:00,
2013-06-28 12:02:00,75.0,-99.9,29.94,North,-999,-999.0,-999.0,-999,-99.99,,,-99.99,,2013-06-28 20:02:00,
2013-06-28 12:11:00,75.0,-99.9,29.94,North,-999,-999.0,-999.0,-999,-99.99,,,-99.99,,2013-06-28 20:11:00,
2013-06-28 12:22:00,75.0,-99.9,29.94,North,-999,-999.0,-999.0,-999,-99.99,,,-99.99,,2013-06-28 20:22:00,
2013-06-28 12:33:00,76.0,-99.9,29.93,North,-999,-999.0,-999.0,-999,-99.99,,,-99.99,,2013-06-28 20:33:00,
2013-06-28 12:43:00,77.0,-99.9,29.93,North,-999,-999.0,-999.0,-999,-99.99,,,-99.99,,2013-06-28 20:43:00,
2013-06-28 12:52:00,77.0,-99.9,29.93,North,-999,-999.0,-999.0,-999,-99.99,,,-99.99,,2013-06-28 20:52:00,
2013-06-28 13:02:00,77.0,-99.9,29.93,North,-999,-999.0,-999.0,-999,-99.99,,,-99.99,,2013-06-28 21:02:00,
2013-06-28 13:11:00,76.0,-99.9,29.93,North,-999,-999.0,-999.0,-999,-99.99,,,-99.99,,2013-06-28 21:11:00,
2013-06-28 13:23:00,75.0,-99.9,29.93,North,-999,-999.0,-999.0,-999,-99.99,,,-99.99,,2013-06-28 21:23:00,
2013-06-28 13:34:00,75.0,-99.9,29.93,North,-999,-999.0,-999.0,-999,-99.99,,,-99.99,,2013-06-28 21:34:00,
2013-06-28 13:43:00,80.0,-99.9,29.93,North,-999,-999.0,-999.0,-999,-99.99,,,-99.99,,2013-06-28 21:43:00,
2013-06-28 13:53:00,81.0,-99.9,29.93,North,-999,-999.0,-999.0,-999,-99.99,,,-99.99,,2013-06-28 21:53:00,
2013-06-28 14:01:00,82.0,-99.9,29.93,North,-999,-999.0,-999.0,-999,-99.99,,,-99.99,,2013-06-28 22:01:00,
2013-06-28 14:11:00,82.0,-99.9,29.93,North,-999,-999.0,-999.0,-999,-99.99,,,-99.99,,2013-06-28 22:11:00,
2013-06-28 14:22:00,82.0,-99.9,29.93,North,-999,-999.0,-999.0,-999,-99.99,,,-99.99,,2013-06-28 22:22:00,
2013-06-28 14:34:00,83.0,-99.9,29.92,North,-999,-999.0,-999.0,-999,-99.99,,,-99.99,,2013-06-28 22:34:00,
2013-06-28 14:43:00,82.0,-99.9,29.92,North,-999,-999.0,-999.0,-999,-99.99,,,-99.99,,2013-06-28 22:43:00,
2013-06-28 14:53:00,82.0,-99.9,29.92,North,-999,-999.0,-999.0,-999,-99.99,,,-99.99,,2013-06-28 22:53:00,
2013-06-28 15:02:00,82.0,-99.9,29.92,North,-999,-999.0,-999.0,-999,-99.99,,,-99.99,,2013-06-28 23:02:00,
2013-06-28 15:11:00,82.0,-99.9,29.92,North,-999,-999.0,-999.0,-999,-99.99,,,-99.99,,2013-06-28 23:11:00,
2013-06-28 15:23:00,82.0,-99.9,29.91,North,-999,-999.0,-999.0,-999,-99.99,,,-99.99,,2013-06-28 23:23:00,
2013-06-28 15:34:00,82.0,-99.9,29.91,North,-999,-999.0,-999.0,-999,-99.99,,,-99.99,,2013-06-28 23:34:00,
2013-06-28 15:43:00,82.0,-99.9,29.91,North,-999,-999.0,-999.0,-999,-99.99,,,-99.99,,2013-06-28 23:43:00,
2013-06-28 15:53:00,81.0,-99.9,29.91,North,-999,-999.0,-999.0,-999,-99.99,,,-99.99,,2013-06-28 23:53:00,
2013-06-28 16:02:00,81.0,-99.9,29.91,North,-999,-999.0,-999.0,-999,-99.99,,,-99.99,,2013-06-29 00:02:00,
2013-06-28 16:12:00,80.0,-99.9,29.91,North,-999,-999.0,-999.0,-999,-99.99,,,-99.99,,2013-06-29 00:12:00,
2013-06-28 16:23:00,80.0,-99.9,29.91,North,-999,-999.0,-999.0,-999,-99.99,,,-99.99,,2013-06-29 00:23:00,
2013-06-28 16:33:00,80.0,-99.9,29.91,North,-999,-999.0,-999.0,-999,-99.99,,,-99.99,,2013-06-29 00:33:00,
2013-06-28 16:42:00,80.0,-99.9,29.91,North,-999,-999.0,-999.0,-999,-99.99,,,-99.99,,2013-06-29 00:42:00,
2013-06-28 16:52:00,80.0,-99.9,29.91,North,-999,-999.0,-999.0,-999,-99.99,,,-99.99,,2013-06-29 00:52:00,
2013-06-28 17:00:00,79.0,-99.9,29.91,North,-999,-999.0,-999.0,-999,-99.99,,,-99.99,,2013-06-29 01:00:00,
2013-06-28 17:22:00,79.0,-99.9,29.91,North,-999,-999.0,-999.0,-999,-99.99,,,-99.99,,2013-06-29 01:22:00,
2013-06-28 17:32:00,79.0,-99.9,29.91,North,-999,-999.0,-999.0,-999,-99.99,,,-99.99,,2013-06-29 01:32:00,
2013-06-28 17:42:00,79.0,-99.9,29.91,North,-999,-999.0,-999.0,-999,-99.99,,,-99.99,,2013-06-29 01:42:00,
2013-06-28 17:52:00,79.0,-99.9,29.91,North,-999,-999.0,-999.0,-999,-99.99,,,-99.99,,2013-06-29 01:52:00,
2013-06-28 19:32:00,76.0,-99.9,29.89,North,-999,-999.0,-999.0,-999,-99.99,,,-99.99,,2013-06-29 03:32:00,
2013-06-28 19:41:00,76.0,-99.9,29.89,North,-999,-999.0,-999.0,-999,-99.99,,,-99.99,,2013-06-29 03:41:00,
2013-06-28 19:51:00,76.0,-99.9,29.89,North,-999,-999.0,-999.0,-999,-99.99,,,-99.99,,2013-06-29 03:51:00,
2013-06-28 20:01:00,76.0,-99.9,29.89,North,-999,-999.0,-999.0,-999,-99.99,,,-99.99,,2013-06-29 04:01:00,
2013-06-28 20:11:00,76.0,-99.9,29.89,North,-999,-999.0,-999.0,-999,-99.99,,,-99.99,,2013-06-29 04:11:00,
2013-06-28 21:31:00,75.0,-99.9,29.89,North,-999,-999.0,-999.0,-999,-99.99,,,-99.99,,2013-06-29 05:31:00,
2013-06-28 21:42:00,75.0,-99.9,29.88,North,-999,-999.0,-999.0,-999,-99.99,,,-99.99,,2013-06-29 05:42:00,
2013-06-28 21:52:00,75.0,-99.9,29.88,North,-999,-999.0,-999.0,-999,-99.99,,,-99.99,,2013-06-29 05:52:00,
2013-06-28 22:01:00,75.0,-99.9,29.88,North,-999,-999.0,-999.0,-999,-99.99,,,-99.99,,2013-06-29 06:01:00,
2013-06-28 22:12:00,75.0,-99.9,29.88,North,-999,-999.0,-999.0,-999,-99.99,,,-99.99,,2013-06-29 06:12:00,
2013-06-28 22:22:00,75.0,-99.9,29.88,North,-999,-999.0,-999.0,-999,-99.99,,,-99.99,,2013-06-29 06:22:00,
2013-06-28 22:34:00,75.0,-99.9,29.88,North,-999,-999.0,-999.0,-999,-99.99,,,-99.99,,2013-06-29 06:34:00,
2013-06-28 22:43:00,73.0,-99.9,29.88,North,-999,-999.0,-999.0,-999,-99.99,,,-99.99,,2013-06-29 06:43:00,
2013-06-28 22:53:00,72.0,-99.9,29.89,North,-999,-999.0,-999.0,-999,-99.99,,,-99.99,,2013-06-29 06:53:00,
2013-06-28 23:02:00,72.0,-99.9,29.89,North,-999,-999.0,-999.0,-999,-99.99,,,-99.99,,2013-06-29 07:02:00,
2013-06-28 23:12:00,71.0,-99.9,29.89,North,-999,-999.0,-999.0,-999,-99.99,,,-99.99,,2013-06-29 07:12:00,
2013-06-28 23:22:00,71.0,-99.9,29.89,North,-999,-999.0,-999.0,-999,-99.99,,,-99.99,,2013-06-29 07:22:00,
2013-06-28 23:33:00,71.0,-99.9,29.89,North,-999,-999.0,-999.0,-999,-99.99,,,-99.99,,2013-06-29 07:33:00,
2013-06-28 23:43:00,71.0,-99.9,29.89,North,-999,-999.0,-999.0,-999,-99.99,,,-99.99,,2013-06-29 07:43:00,
2013-06-28 23:53:00,71.0,-99.9,29.89,North,-999,-999.0,-999.0,-999,-99.99,,,-99.99,,2013-06-29 07:53:00,